createdAt,value
2022-07-29T00:00:00.000Z,21.75
2022-07-29T00:15:00.000Z,21.43
2022-07-29T00:30:00.000Z,21.13
2022-07-29T00:45:00.000Z,21
2022-07-29T01:00:00.000Z,21.03
2022-07-29T01:15:00.000Z,21.18
2022-07-29T01:30:00.000Z,21.01
2022-07-29T01:45:00.000Z,20.97
2022-07-29T02:00:00.000Z,21.07
2022-07-29T02:15:00.000Z,21.01
2022-07-29T02:30:00.000Z,20.87
2022-07-29T02:45:00.000Z,20.91
2022-07-29T03:00:00.000Z,20.82
2022-07-29T03:15:00.000Z,20.61
2022-07-29T03:30:00.000Z,20.48
2022-07-29T03:45:00.000Z,20.25
2022-07-29T04:00:00.000Z,20.36
2022-07-29T04:15:00.000Z,20.71
2022-07-29T04:30:00.000Z,20.79
2022-07-29T04:45:00.000Z,20.74
2022-07-29T05:00:00.000Z,20.96
2022-07-29T05:15:00.000Z,21.04
2022-07-29T05:30:00.000Z,21.16
2022-07-29T05:45:00.000Z,21.69
2022-07-29T06:00:00.000Z,22.4
2022-07-29T06:15:00.000Z,22.31
2022-07-29T06:30:00.000Z,22.59
2022-07-29T06:45:00.000Z,23.27
2022-07-29T07:00:00.000Z,28.33
2022-07-29T07:15:00.000Z,30.17
2022-07-29T07:30:00.000Z,30.79
2022-07-29T07:45:00.000Z,32.33
2022-07-29T08:00:00.000Z,32.76
2022-07-29T08:15:00.000Z,32.22
2022-07-29T08:30:00.000Z,33.57
2022-07-29T08:45:00.000Z,34.18
2022-07-29T09:00:00.000Z,34.67
2022-07-29T09:15:00.000Z,34.67
2022-07-29T09:30:00.000Z,34.49
2022-07-29T09:45:00.000Z,34.31
2022-07-29T10:00:00.000Z,33.71
2022-07-29T10:15:00.000Z,32.7
2022-07-29T10:30:00.000Z,33.36
2022-07-29T10:45:00.000Z,33.18
2022-07-29T11:00:00.000Z,32.94
2022-07-29T11:15:00.000Z,32.78
2022-07-29T11:30:00.000Z,32.27
2022-07-29T11:45:00.000Z,32.12
2022-07-29T12:00:00.000Z,32.11
2022-07-29T12:15:00.000Z,31.44
2022-07-29T12:30:00.000Z,31.19
2022-07-29T12:45:00.000Z,31.17
2022-07-29T13:00:00.000Z,31.28
2022-07-29T13:15:00.000Z,31.51
2022-07-29T13:30:00.000Z,30.81
2022-07-29T13:45:00.000Z,30.66
2022-07-29T14:00:00.000Z,30.22
2022-07-29T14:15:00.000Z,30
2022-07-29T14:30:00.000Z,29.57
2022-07-29T14:45:00.000Z,29.93
2022-07-29T15:00:00.000Z,30.61
2022-07-29T15:15:00.000Z,30.35
2022-07-29T15:30:00.000Z,30.55
2022-07-29T15:45:00.000Z,29.99
2022-07-29T16:00:00.000Z,29.93
2022-07-29T16:15:00.000Z,29.77
2022-07-29T16:30:00.000Z,29.41
2022-07-29T16:45:00.000Z,29.06
2022-07-29T17:00:00.000Z,28.51
2022-07-29T17:15:00.000Z,27.9
2022-07-29T17:30:00.000Z,27.59
2022-07-29T17:45:00.000Z,26.83
2022-07-29T18:00:00.000Z,25.56
2022-07-29T18:15:00.000Z,24.12
2022-07-29T18:30:00.000Z,21.94
2022-07-29T18:45:00.000Z,20.67
2022-07-29T19:00:00.000Z,21.13
2022-07-29T19:15:00.000Z,21.25
2022-07-29T19:30:00.000Z,21.38
2022-07-29T19:45:00.000Z,21.13
2022-07-29T20:00:00.000Z,20.83
2022-07-29T20:15:00.000Z,20.8
2022-07-29T20:30:00.000Z,21.07
2022-07-29T20:45:00.000Z,20.99
2022-07-29T21:00:00.000Z,20.91
2022-07-29T21:15:00.000Z,20.71
2022-07-29T21:30:00.000Z,20.32
2022-07-29T21:45:00.000Z,20.16
2022-07-29T22:00:00.000Z,20.16
2022-07-29T22:15:00.000Z,20.08
2022-07-29T22:30:00.000Z,20.22
2022-07-29T22:45:00.000Z,20.4
2022-07-29T23:00:00.000Z,20.42
2022-07-29T23:15:00.000Z,20.26
2022-07-29T23:30:00.000Z,20.13
2022-07-29T23:45:00.000Z,20.08
